Time;durP1;ratioP1;P1;durP2;ratioP2;P2;SDS_P1;SDS_P2;PMS_P1;PMS_P2;Temp;Humidity;BMP_temperature;BMP_pressure;BME280_temperature;BME280_humidity;BME280_pressure;Samples;Min_cycle;Max_cycle;Signal;HPM_P1;HPM_P2
2022/10/18 00:00:46;;;;;;;;;;;;;;;17.93;75.23;102250.50;1237875;24;647;-86
2022/10/18 00:01:37;;;;;;;;;;;;;;;17.93;75.39;102245.13;1237920;24;709;-86
2022/10/18 00:02:27;;;;;;;;;;;;;;;17.93;75.88;102247.81;1238391;24;725;-86
2022/10/18 00:03:18;;;;;;;;;;;;;;;17.92;75.73;102244.25;1238029;24;634;-87
2022/10/18 00:04:08;;;;;;;;;;;;;;;17.93;75.55;102245.97;1237850;24;690;-87
2022/10/18 00:04:59;;;;;;;;;;;;;;;17.93;75.11;102245.13;1238363;23;665;-87
2022/10/18 00:05:49;;;;;;;;;;;;;;;17.92;75.58;102240.69;1237823;24;674;-86
2022/10/18 00:06:39;;;;;;;;;;;;;;;17.92;76.05;102244.25;1238603;24;651;-87
2022/10/18 00:07:30;;;;;;;;;;;;;;;17.92;75.63;102238.00;1237845;23;681;-86
2022/10/18 00:08:20;;;;;;;;;;;;;;;17.92;75.84;102238.00;1242805;23;693;-86
2022/10/18 00:09:11;;;;;;;;;;;;;;;17.93;75.39;102234.34;1243213;23;646;-85
2022/10/18 00:10:01;;;;;;;;;;;;;;;17.93;75.80;102245.13;1237362;24;653;-85
2022/10/18 00:10:51;;;;;;;;;;;;;;;17.91;75.66;102237.16;1237824;23;653;-87
2022/10/18 00:11:42;;;;;;;;;;;;;;;17.92;75.31;102243.41;1238441;24;638;-86
2022/10/18 00:12:33;;;;;;;;;;;;;;;17.91;75.95;102237.16;1237796;24;917;-88
2022/10/18 00:13:23;;;;;;;;;;;;;;;17.91;75.38;102242.56;1238046;23;788;-86
2022/10/18 00:14:13;;;;;;;;;;;;;;;17.92;75.73;102238.88;1238640;24;615;-86
2022/10/18 00:15:04;;;;;;;;;;;;;;;17.91;74.95;102239.00;1237808;23;654;-85
2022/10/18 00:15:54;;;;;;;;;;;;;;;17.90;75.85;102238.16;1237944;24;741;-84
2022/10/18 00:16:45;;;;;;;;;;;;;;;17.90;75.85;102238.16;1238364;24;675;-84
2022/10/18 00:17:35;;;;;;;;;;;;;;;17.88;75.87;102240.09;1237993;23;646;-84
2022/10/18 00:18:26;;;;;;;;;;;;;;;17.90;76.05;102245.38;1238220;24;667;-84
2022/10/18 00:19:16;;;;;;;;;;;;;;;17.90;75.90;102242.69;1237762;24;670;-84
2022/10/18 00:20:06;;;;;;;;;;;;;;;17.90;75.50;102242.69;1237778;24;666;-84
2022/10/18 00:20:57;;;;;;;;;;;;;;;17.89;75.37;102239.13;1238369;24;686;-84
2022/10/18 00:21:47;;;;;;;;;;;;;;;17.90;75.92;102240.84;1243111;23;654;-85
2022/10/18 00:22:38;;;;;;;;;;;;;;;17.91;76.34;102228.22;1243347;23;638;-84
2022/10/18 00:23:28;;;;;;;;;;;;;;;17.91;76.37;102230.91;1237380;24;626;-85
2022/10/18 00:24:19;;;;;;;;;;;;;;;17.90;75.68;102230.06;1243352;23;606;-84
2022/10/18 00:25:09;;;;;;;;;;;;;;;17.90;75.96;102232.75;1242587;23;642;-84
2022/10/18 00:26:00;;;;;;;;;;;;;;;17.90;75.90;102237.28;1237473;24;646;-84
2022/10/18 00:26:50;;;;;;;;;;;;;;;17.90;75.67;102234.59;1237865;24;701;-85
2022/10/18 00:27:40;;;;;;;;;;;;;;;17.90;75.98;102229.19;1244301;23;690;-84
2022/10/18 00:28:31;;;;;;;;;;;;;;;17.89;76.36;102239.13;1245222;23;698;-85
2022/10/18 00:29:21;;;;;;;;;;;;;;;17.89;75.64;102232.88;1239188;23;791;-86
2022/10/18 00:30:12;;;;;;;;;;;;;;;17.88;75.84;102233.84;1237736;24;622;-85
2022/10/18 00:31:02;;;;;;;;;;;;;;;17.89;75.45;102233.72;1237105;24;626;-85
2022/10/18 00:31:53;;;;;;;;;;;;;;;17.88;75.41;102236.53;1237770;24;662;-85
2022/10/18 00:32:43;;;;;;;;;;;;;;;17.89;75.73;102235.56;1238710;24;713;-86
2022/10/18 00:33:34;;;;;;;;;;;;;;;17.88;75.82;102239.22;1237777;24;634;-86
2022/10/18 00:34:24;;;;;;;;;;;;;;;17.86;75.17;102239.34;1237564;24;1189;-84
2022/10/18 00:35:14;;;;;;;;;;;;;;;17.86;75.46;102231.25;1238180;24;666;-84
2022/10/18 00:36:05;;;;;;;;;;;;;;;17.86;75.22;102238.47;1237795;24;643;-85
2022/10/18 00:36:55;;;;;;;;;;;;;;;17.88;75.93;102236.53;1237792;24;701;-85
2022/10/18 00:37:46;;;;;;;;;;;;;;;17.88;75.52;102239.22;1238423;24;639;-85
2022/10/18 00:38:36;;;;;;;;;;;;;;;17.87;76.07;102240.19;1237882;24;710;-86
2022/10/18 00:39:27;;;;;;;;;;;;;;;17.85;76.32;102237.63;1238005;24;753;-85
2022/10/18 00:40:17;;;;;;;;;;;;;;;17.85;75.79;102240.31;1237904;24;709;-84
2022/10/18 00:42:24;;;;;;;;;;;;;;;17.85;75.63;102242.16;1237750;24;647;-86
2022/10/18 00:43:15;;;;;;;;;;;;;;;17.83;75.71;102239.56;1238649;24;665;-85
2022/10/18 00:44:05;;;;;;;;;;;;;;;17.85;75.48;102239.44;1243357;23;662;-84
2022/10/18 00:44:56;;;;;;;;;;;;;;;17.83;75.89;102239.56;1242401;23;643;-86
2022/10/18 00:45:46;;;;;;;;;;;;;;;17.84;75.74;102243.13;1237784;24;799;-85
2022/10/18 00:46:36;;;;;;;;;;;;;;;17.84;76.17;102237.72;1237859;24;670;-84
2022/10/18 00:47:27;;;;;;;;;;;;;;;17.84;76.24;102248.50;1237753;23;622;-85
2022/10/18 00:48:17;;;;;;;;;;;;;;;17.85;75.65;102253.78;1237675;24;765;-84
2022/10/18 00:49:08;;;;;;;;;;;;;;;17.85;76.08;102252.94;1237679;24;646;-83
2022/10/18 00:49:58;;;;;;;;;;;;;;;17.84;75.90;102246.69;1237976;24;701;-83
2022/10/18 00:50:49;;;;;;;;;;;;;;;17.84;76.47;102252.06;1238277;23;638;-83
2022/10/18 00:51:39;;;;;;;;;;;;;;;17.84;76.59;102241.28;1237155;24;661;-84
2022/10/18 00:52:29;;;;;;;;;;;;;;;17.84;75.75;102243.13;1238771;23;689;-84
2022/10/18 00:53:20;;;;;;;;;;;;;;;17.84;76.22;102245.81;1237703;24;716;-85
2022/10/18 00:54:10;;;;;;;;;;;;;;;17.84;76.14;102248.50;1237761;24;655;-84
2022/10/18 00:55:01;;;;;;;;;;;;;;;17.85;75.33;102252.94;1238572;23;696;-84
2022/10/18 00:55:51;;;;;;;;;;;;;;;17.83;75.70;102247.66;1238001;23;669;-84
2022/10/18 00:56:43;;;;;;;;;;;;;;;17.83;75.57;102246.78;1237724;24;658;-83
2022/10/18 00:57:34;;;;;;;;;;;;;;;17.82;76.07;102236.97;1237688;24;631;-84
2022/10/18 00:58:24;;;;;;;;;;;;;;;17.82;76.12;102243.22;1237946;24;658;-85
2022/10/18 00:59:15;;;;;;;;;;;;;;;17.82;75.27;102236.97;1243350;23;816;-87
2022/10/18 01:00:08;;;;;;;;;;;;;;;17.82;75.96;102240.53;1243320;23;658;-87
2022/10/18 01:00:59;;;;;;;;;;;;;;;17.82;75.46;102237.84;1236862;24;758;-87
2022/10/18 01:01:49;;;;;;;;;;;;;;;17.81;76.09;102240.63;1244125;23;930;-88
2022/10/18 01:02:39;;;;;;;;;;;;;;;17.81;75.92;102248.72;1243422;23;647;-89
2022/10/18 01:03:30;;;;;;;;;;;;;;;17.81;75.81;102246.91;1237296;24;662;-89
2022/10/18 01:04:20;;;;;;;;;;;;;;;17.81;76.31;102256.81;1238221;24;630;-92
2022/10/18 01:05:11;;;;;;;;;;;;;;;17.80;75.78;102245.16;1238136;24;674;-91
2022/10/18 01:06:01;;;;;;;;;;;;;;;17.82;75.35;102258.53;1237470;23;639;-91
2022/10/18 01:06:52;;;;;;;;;;;;;;;17.81;75.60;102254.97;1238951;24;642;-91
2022/10/18 01:07:42;;;;;;;;;;;;;;;17.82;75.93;102256.72;1237885;24;646;-90
2022/10/18 01:08:33;;;;;;;;;;;;;;;17.79;75.80;102251.53;1238035;24;635;-90
2022/10/18 01:09:23;;;;;;;;;;;;;;;17.80;76.08;102257.78;1238768;23;661;-91
2022/10/18 01:10:14;;;;;;;;;;;;;;;17.81;75.52;102251.44;1237877;24;632;-87
2022/10/18 01:11:04;;;;;;;;;;;;;;;17.81;75.10;102251.44;1238406;24;643;-91
2022/10/18 01:11:54;;;;;;;;;;;;;;;17.80;76.28;102247.88;1238871;24;627;-91
2022/10/18 01:12:45;;;;;;;;;;;;;;;17.79;75.16;102256.06;1237876;24;671;-88
2022/10/18 01:13:35;;;;;;;;;;;;;;;17.79;75.96;102256.94;1238161;24;639;-90
2022/10/18 01:14:26;;;;;;;;;;;;;;;17.80;75.44;102257.78;1243187;23;771;-88
2022/10/18 01:15:16;;;;;;;;;;;;;;;17.79;76.02;102261.47;1242512;23;693;-88
2022/10/18 01:16:07;;;;;;;;;;;;;;;17.78;75.40;102257.03;1237101;24;713;-88
2022/10/18 01:16:57;;;;;;;;;;;;;;;17.78;75.39;102257.03;1237636;24;670;-89
2022/10/18 01:17:47;;;;;;;;;;;;;;;17.79;75.25;102265.03;1237628;24;678;-89
2022/10/18 01:18:38;;;;;;;;;;;;;;;17.78;75.97;102259.72;1237987;24;813;-88
2022/10/18 01:19:28;;;;;;;;;;;;;;;17.77;75.84;102255.31;1237682;24;666;-88
2022/10/18 01:20:19;;;;;;;;;;;;;;;17.77;76.20;102255.31;1237802;23;666;-89
2022/10/18 01:21:09;;;;;;;;;;;;;;;17.77;75.99;102258.88;1238485;24;675;-87
2022/10/18 01:22:00;;;;;;;;;;;;;;;17.76;75.78;102265.22;1237984;24;666;-88
2022/10/18 01:22:50;;;;;;;;;;;;;;;17.75;75.12;102254.56;1242366;24;724;-89
2022/10/18 01:23:41;;;;;;;;;;;;;;;17.76;75.92;102259.84;1242586;24;717;-87
2022/10/18 01:24:31;;;;;;;;;;;;;;;17.76;75.83;102259.84;1241092;24;1901;-88
2022/10/18 01:25:21;;;;;;;;;;;;;;;17.76;75.80;102264.38;1238328;24;658;-88
2022/10/18 01:26:12;;;;;;;;;;;;;;;17.76;75.93;102257.16;1238728;24;639;-89
2022/10/18 01:27:02;;;;;;;;;;;;;;;17.77;75.29;102256.16;1238233;24;651;-89
2022/10/18 01:27:53;;;;;;;;;;;;;;;17.76;75.15;102253.59;1238661;24;667;-88
2022/10/18 01:28:43;;;;;;;;;;;;;;;17.75;75.69;102257.25;1237843;24;674;-89
2022/10/18 01:29:34;;;;;;;;;;;;;;;17.75;75.45;102251.84;1237646;24;591;-89
2022/10/18 01:30:24;;;;;;;;;;;;;;;17.76;75.28;102261.69;1237979;24;638;-88
2022/10/18 01:31:14;;;;;;;;;;;;;;;17.75;75.34;102262.66;1237680;23;743;-88
2022/10/18 01:32:05;;;;;;;;;;;;;;;17.73;76.10;102265.47;1237604;24;655;-91
2022/10/18 01:32:55;;;;;;;;;;;;;;;17.73;75.04;102256.53;1237805;24;651;-89
2022/10/18 01:33:47;;;;;;;;;;;;;;;17.73;75.19;102270.00;1238166;24;666;-89
2022/10/18 01:34:38;;;;;;;;;;;;;;;17.74;75.55;102272.56;1243523;23;1113;-88
2022/10/18 01:35:28;;;;;;;;;;;;;;;17.75;76.37;102270.72;1242649;23;627;-88
2022/10/18 01:36:19;;;;;;;;;;;;;;;17.74;76.20;102269.88;1237417;24;667;-90
2022/10/18 01:37:09;;;;;;;;;;;;;;;17.71;75.32;102266.56;1238362;24;646;-89
2022/10/18 01:38:00;;;;;;;;;;;;;;;17.71;75.22;102266.56;1238001;24;697;-89
2022/10/18 01:38:50;;;;;;;;;;;;;;;17.72;75.45;102271.84;1237974;24;682;-86
2022/10/18 01:39:40;;;;;;;;;;;;;;;17.73;75.97;102270.00;1238037;24;646;-86
2022/10/18 01:40:31;;;;;;;;;;;;;;;17.73;76.22;102267.31;1238029;24;638;-86
2022/10/18 01:41:21;;;;;;;;;;;;;;;17.73;75.83;102259.22;1237996;24;694;-86
2022/10/18 01:42:12;;;;;;;;;;;;;;;17.72;75.33;102265.59;1237136;24;615;-86
2022/10/18 01:43:02;;;;;;;;;;;;;;;17.71;75.61;102253.94;1237920;24;736;-86
2022/10/18 01:43:53;;;;;;;;;;;;;;;17.72;74.83;102262.91;1238095;24;563;-87
2022/10/18 01:44:43;;;;;;;;;;;;;;;17.71;75.99;102258.47;1237838;24;1931;-86
2022/10/18 01:45:33;;;;;;;;;;;;;;;17.71;75.86;102255.78;1238212;24;627;-87
2022/10/18 01:46:24;;;;;;;;;;;;;;;17.72;75.25;102257.50;1238092;23;657;-86
2022/10/18 01:47:14;;;;;;;;;;;;;;;17.70;75.35;102265.69;1243424;23;670;-87
2022/10/18 01:48:05;;;;;;;;;;;;;;;17.72;75.38;102262.91;1243511;23;682;-86
2022/10/18 01:48:55;;;;;;;;;;;;;;;17.71;75.19;102258.47;1237477;24;651;-85
2022/10/18 01:49:45;;;;;;;;;;;;;;;17.71;75.45;102261.16;1237507;24;690;-86
2022/10/18 01:50:36;;;;;;;;;;;;;;;17.69;75.87;102254.06;1238104;23;651;-86
2022/10/18 01:51:26;;;;;;;;;;;;;;;17.70;75.25;102260.31;1238108;24;679;-86
2022/10/18 01:52:17;;;;;;;;;;;;;;;17.68;75.49;102260.41;1238133;24;566;-86
2022/10/18 01:53:07;;;;;;;;;;;;;;;17.69;75.58;102264.84;1237065;24;692;-88
2022/10/18 01:53:58;;;;;;;;;;;;;;;17.68;75.98;102265.81;1238206;24;615;-87
2022/10/18 01:54:48;;;;;;;;;;;;;;;17.69;75.79;102262.16;1237922;24;693;-87
2022/10/18 01:55:39;;;;;;;;;;;;;;;17.68;75.85;102263.13;1237116;24;666;-86
2022/10/18 01:56:29;;;;;;;;;;;;;;;17.68;75.63;102263.13;1243580;23;650;-82
2022/10/18 01:57:20;;;;;;;;;;;;;;;17.68;75.76;102263.13;1242486;23;701;-83
2022/10/18 01:58:10;;;;;;;;;;;;;;;17.68;76.01;102259.56;1237441;24;648;-83
2022/10/18 01:59:01;;;;;;;;;;;;;;;17.67;75.38;102266.78;1243447;23;653;-82
2022/10/18 01:59:54;;;;;;;;;;;;;;;17.67;75.91;102272.19;1242640;23;643;-83
2022/10/18 02:00:44;;;;;;;;;;;;;;;17.66;76.22;102270.44;1237324;24;619;-83
2022/10/18 02:01:35;;;;;;;;;;;;;;;17.66;75.09;102270.44;1237972;24;666;-86
2022/10/18 02:02:25;;;;;;;;;;;;;;;17.65;75.68;102267.84;1237942;24;667;-86
2022/10/18 02:03:16;;;;;;;;;;;;;;;17.65;75.45;102276.81;1243408;23;756;-85
2022/10/18 02:04:07;;;;;;;;;;;;;;;17.62;76.19;102277.00;1242194;23;654;-85
2022/10/18 02:04:57;;;;;;;;;;;;;;;17.63;75.61;102276.03;1238452;23;654;-88
2022/10/18 02:05:48;;;;;;;;;;;;;;;17.63;75.80;102281.41;1236925;24;619;-88
2022/10/18 02:06:38;;;;;;;;;;;;;;;17.64;75.50;102275.09;1237997;24;638;-87
2022/10/18 02:07:29;;;;;;;;;;;;;;;17.67;75.46;102272.19;1237775;24;698;-85
2022/10/18 02:08:19;;;;;;;;;;;;;;;17.64;75.77;102267.00;1237957;24;757;-85
2022/10/18 02:09:10;;;;;;;;;;;;;;;17.65;75.86;102278.63;1238092;24;713;-85
2022/10/18 02:10:00;;;;;;;;;;;;;;;17.64;75.28;102269.69;1238039;24;827;-86
2022/10/18 02:10:51;;;;;;;;;;;;;;;17.65;75.89;102284.91;1237781;24;635;-85
2022/10/18 02:11:41;;;;;;;;;;;;;;;17.66;75.51;102270.44;1237927;24;634;-86
2022/10/18 02:12:31;;;;;;;;;;;;;;;17.66;75.81;102270.44;1237950;24;662;-86
2022/10/18 02:13:22;;;;;;;;;;;;;;;17.66;75.49;102267.75;1237795;24;650;-87
2022/10/18 02:14:12;;;;;;;;;;;;;;;17.65;75.94;102267.84;1237465;24;618;-87
2022/10/18 02:15:03;;;;;;;;;;;;;;;17.63;75.90;102261.69;1237993;24;666;-87
2022/10/18 02:15:53;;;;;;;;;;;;;;;17.64;75.92;102261.59;1238163;24;654;-85
2022/10/18 02:16:44;;;;;;;;;;;;;;;17.64;75.24;102261.59;1240018;24;681;-84
2022/10/18 02:17:34;;;;;;;;;;;;;;;17.63;75.98;102265.22;1241506;23;706;-85
2022/10/18 02:18:24;;;;;;;;;;;;;;;17.63;75.77;102267.06;1238115;23;642;-84
2022/10/18 02:19:15;;;;;;;;;;;;;;;17.63;75.54;102276.03;1238289;24;671;-84
2022/10/18 02:20:05;;;;;;;;;;;;;;;17.62;76.00;102278.81;1237826;24;694;-84
2022/10/18 02:20:56;;;;;;;;;;;;;;;17.62;75.72;102278.81;1238107;24;623;-85
2022/10/18 02:21:46;;;;;;;;;;;;;;;17.62;75.57;102274.28;1238075;24;716;-85
2022/10/18 02:22:38;;;;;;;;;;;;;;;17.64;75.50;102274.22;1238087;23;657;-84
2022/10/18 02:23:28;;;;;;;;;;;;;;;17.63;75.18;102281.41;1238046;23;657;-85
2022/10/18 02:24:19;;;;;;;;;;;;;;;17.64;75.35;102279.63;1237895;24;622;-85
2022/10/18 02:25:09;;;;;;;;;;;;;;;17.64;75.40;102291.25;1237883;24;674;-85
2022/10/18 02:25:59;;;;;;;;;;;;;;;17.62;75.57;102285.06;1237996;24;676;-85
2022/10/18 02:26:50;;;;;;;;;;;;;;;17.63;75.75;102283.25;1238075;24;820;-85
2022/10/18 02:27:40;;;;;;;;;;;;;;;17.61;75.35;102280.66;1243410;23;701;-85
2022/10/18 02:28:31;;;;;;;;;;;;;;;17.63;75.02;102275.16;1242689;23;599;-87
2022/10/18 02:29:21;;;;;;;;;;;;;;;17.62;75.10;102279.69;1238151;23;673;-87
2022/10/18 02:30:14;;;;;;;;;;;;;;;17.61;76.11;102283.34;1237918;23;635;-87
2022/10/18 02:31:04;;;;;;;;;;;;;;;17.61;75.84;102272.56;1236892;24;671;-86
2022/10/18 02:31:55;;;;;;;;;;;;;;;17.61;75.43;102282.50;1243420;23;763;-86
2022/10/18 02:32:45;;;;;;;;;;;;;;;17.59;75.45;102279.03;1244129;23;626;-87
2022/10/18 02:33:35;;;;;;;;;;;;;;;17.59;75.72;102274.50;1237386;24;641;-86
2022/10/18 02:34:26;;;;;;;;;;;;;;;17.58;75.73;102270.09;1237548;24;1180;-87
2022/10/18 02:35:16;;;;;;;;;;;;;;;17.58;75.23;102269.22;1238004;23;724;-87
2022/10/18 02:36:07;;;;;;;;;;;;;;;17.59;76.18;102270.94;1237950;24;686;-86
2022/10/18 02:36:57;;;;;;;;;;;;;;;17.58;76.08;102272.78;1237853;24;626;-85
2022/10/18 02:37:47;;;;;;;;;;;;;;;17.59;75.86;102269.13;1237250;24;653;-85
2022/10/18 02:38:38;;;;;;;;;;;;;;;17.60;75.35;102269.97;1238012;23;627;-85
2022/10/18 02:39:28;;;;;;;;;;;;;;;17.59;75.12;102274.50;1238028;24;689;-85
2022/10/18 02:40:19;;;;;;;;;;;;;;;17.58;75.32;102267.41;1243389;23;634;-85
2022/10/18 02:41:09;;;;;;;;;;;;;;;17.58;75.58;102266.53;1242657;23;674;-86
2022/10/18 02:42:00;;;;;;;;;;;;;;;17.58;75.19;102275.47;1237205;24;642;-87
2022/10/18 02:42:50;;;;;;;;;;;;;;;17.58;75.84;102270.09;1243333;23;665;-87
2022/10/18 02:43:40;;;;;;;;;;;;;;;17.58;75.42;102272.78;1242827;23;612;-86
2022/10/18 02:44:31;;;;;;;;;;;;;;;17.56;75.71;102272.03;1238983;23;1898;-87
2022/10/18 02:45:21;;;;;;;;;;;;;;;17.56;74.97;102272.03;1237614;24;662;-87
2022/10/18 02:46:12;;;;;;;;;;;;;;;17.57;75.90;102275.59;1237995;24;666;-86
2022/10/18 02:47:02;;;;;;;;;;;;;;;17.57;75.96;102272.88;1237893;24;632;-86
2022/10/18 02:47:53;;;;;;;;;;;;;;;17.57;75.62;102275.59;1237499;24;631;-87
2022/10/18 02:48:43;;;;;;;;;;;;;;;17.57;75.40;102275.59;1237737;23;670;-88
2022/10/18 02:49:33;;;;;;;;;;;;;;;17.57;75.28;102276.44;1237940;24;686;-87
2022/10/18 02:50:24;;;;;;;;;;;;;;;17.57;75.25;102280.97;1238011;23;606;-87
2022/10/18 02:51:14;;;;;;;;;;;;;;;17.58;74.89;102283.56;1237771;24;650;-87
2022/10/18 02:52:05;;;;;;;;;;;;;;;17.57;75.54;102280.97;1237964;23;614;-88
2022/10/18 02:52:55;;;;;;;;;;;;;;;17.57;75.47;102279.16;1237899;24;658;-88
2022/10/18 02:53:45;;;;;;;;;;;;;;;17.57;75.99;102284.53;1238045;24;682;-88
2022/10/18 02:54:36;;;;;;;;;;;;;;;17.55;75.39;102275.72;1237321;24;654;-88
2022/10/18 02:55:26;;;;;;;;;;;;;;;17.57;75.09;102275.59;1237982;23;658;-86
2022/10/18 02:56:17;;;;;;;;;;;;;;;17.57;75.37;102279.16;1238002;23;646;-86
2022/10/18 02:57:07;;;;;;;;;;;;;;;17.57;75.71;102276.44;1237282;24;678;-86
2022/10/18 02:57:58;;;;;;;;;;;;;;;17.58;76.01;102278.19;1237843;24;647;-87
2022/10/18 02:58:48;;;;;;;;;;;;;;;17.56;75.24;102272.03;1237927;23;666;-86
2022/10/18 02:59:38;;;;;;;;;;;;;;;17.57;75.34;102273.75;1238037;23;642;-87
2022/10/18 03:00:29;;;;;;;;;;;;;;;17.56;75.69;102274.72;1237738;24;641;-86
2022/10/18 03:01:19;;;;;;;;;;;;;;;17.56;75.28;102274.72;1237919;24;678;-88
2022/10/18 03:02:10;;;;;;;;;;;;;;;17.56;75.62;102280.13;1237352;24;623;-88
2022/10/18 03:03:00;;;;;;;;;;;;;;;17.55;75.64;102280.25;1241788;23;922;-87
2022/10/18 03:03:51;;;;;;;;;;;;;;;17.55;76.14;102282.94;1242572;23;646;-86
2022/10/18 03:04:41;;;;;;;;;;;;;;;17.55;75.78;102275.72;1237165;24;1935;-86
2022/10/18 03:05:31;;;;;;;;;;;;;;;17.55;75.07;102281.13;1237967;24;666;-84
2022/10/18 03:06:22;;;;;;;;;;;;;;;17.55;75.42;102283.81;1237741;24;651;-86
2022/10/18 03:07:12;;;;;;;;;;;;;;;17.56;76.05;102285.50;1237071;24;681;-84
2022/10/18 03:08:03;;;;;;;;;;;;;;;17.55;75.79;102280.25;1237845;24;650;-83
2022/10/18 03:08:53;;;;;;;;;;;;;;;17.55;75.37;102283.81;1243273;23;643;-82
2022/10/18 03:09:44;;;;;;;;;;;;;;;17.55;75.99;102283.81;1244290;23;775;-82
2022/10/18 03:10:34;;;;;;;;;;;;;;;17.54;75.72;102282.09;1237264;24;638;-82
2022/10/18 03:11:24;;;;;;;;;;;;;;;17.54;75.35;102279.38;1237942;24;650;-83
2022/10/18 03:12:15;;;;;;;;;;;;;;;17.54;75.72;102274.00;1238101;24;643;-83
2022/10/18 03:13:05;;;;;;;;;;;;;;;17.52;76.08;102281.31;1238795;24;725;-85
2022/10/18 03:13:56;;;;;;;;;;;;;;;17.54;75.36;102275.84;1238280;24;634;-86
2022/10/18 03:14:46;;;;;;;;;;;;;;;17.52;75.42;102273.25;1238153;24;690;-87
2022/10/18 03:15:37;;;;;;;;;;;;;;;17.53;75.15;102272.28;1238308;24;638;-87
2022/10/18 03:16:27;;;;;;;;;;;;;;;17.53;75.10;102274.97;1243522;23;650;-86
2022/10/18 03:17:18;;;;;;;;;;;;;;;17.51;75.98;102276.91;1242541;23;638;-85
2022/10/18 03:18:08;;;;;;;;;;;;;;;17.51;75.87;102274.22;1237403;24;689;-87
2022/10/18 03:18:58;;;;;;;;;;;;;;;17.51;76.28;102268.81;1237989;24;654;-87
2022/10/18 03:19:49;;;;;;;;;;;;;;;17.51;75.68;102267.97;1243361;23;733;-87
2022/10/18 03:20:39;;;;;;;;;;;;;;;17.51;75.22;102270.66;1242499;23;672;-87
2022/10/18 03:21:30;;;;;;;;;;;;;;;17.51;75.90;102271.53;1237953;23;646;-88
2022/10/18 03:22:20;;;;;;;;;;;;;;;17.52;75.88;102265.16;1243300;23;674;-87
2022/10/18 03:23:11;;;;;;;;;;;;;;;17.52;75.53;102269.69;1243090;23;660;-88
2022/10/18 03:24:01;;;;;;;;;;;;;;;17.51;75.53;102268.81;1237170;24;646;-88
2022/10/18 03:24:52;;;;;;;;;;;;;;;17.52;75.45;102267.00;1238064;24;1889;-88
2022/10/18 03:25:43;;;;;;;;;;;;;;;17.51;75.46;102270.66;1238084;23;748;-88
2022/10/18 03:26:33;;;;;;;;;;;;;;;17.51;75.53;102268.81;1237686;24;658;-89
2022/10/18 03:27:24;;;;;;;;;;;;;;;17.50;75.11;102272.50;1238349;24;634;-89
2022/10/18 03:28:14;;;;;;;;;;;;;;;17.49;75.08;102273.47;1237256;24;650;-89
2022/10/18 03:29:05;;;;;;;;;;;;;;;17.50;75.26;102275.19;1238014;24;658;-87
2022/10/18 03:29:59;;;;;;;;;;;;;;;17.50;76.03;102280.56;1238736;24;825;-88
2022/10/18 03:30:50;;;;;;;;;;;;;;;17.50;75.99;102280.56;1236982;24;643;-88
2022/10/18 03:31:40;;;;;;;;;;;;;;;17.51;74.96;102284.13;1237930;24;670;-88
2022/10/18 03:32:31;;;;;;;;;;;;;;;17.50;75.33;102288.66;1243598;23;657;-89
2022/10/18 03:33:21;;;;;;;;;;;;;;;17.49;75.56;102289.63;1244198;23;606;-88
2022/10/18 03:34:11;;;;;;;;;;;;;;;17.50;75.78;102285.09;1237391;24;749;-88
2022/10/18 03:35:02;;;;;;;;;;;;;;;17.48;75.41;102292.44;1237843;24;744;-88
2022/10/18 03:35:52;;;;;;;;;;;;;;;17.46;75.95;102284.44;1237174;24;674;-87
2022/10/18 03:36:43;;;;;;;;;;;;;;;17.47;75.19;102286.19;1237889;24;678;-87
2022/10/18 03:37:33;;;;;;;;;;;;;;;17.48;75.37;102290.59;1237816;24;686;-86
2022/10/18 03:38:24;;;;;;;;;;;;;;;17.47;75.26;102288.88;1237721;24;667;-87
2022/10/18 03:39:14;;;;;;;;;;;;;;;17.48;75.11;102285.22;1238018;24;626;-87
2022/10/18 03:40:04;;;;;;;;;;;;;;;17.47;75.61;102282.63;1237241;24;665;-87
2022/10/18 03:40:55;;;;;;;;;;;;;;;17.46;76.08;102279.06;1237737;24;671;-87
2022/10/18 03:41:45;;;;;;;;;;;;;;;17.46;75.09;102287.16;1237733;24;674;-88
2022/10/18 03:42:36;;;;;;;;;;;;;;;17.47;75.14;102288.88;1237879;24;677;-87
2022/10/18 03:43:26;;;;;;;;;;;;;;;17.47;75.12;102288.00;1237835;24;646;-91
2022/10/18 03:44:17;;;;;;;;;;;;;;;17.47;74.92;102293.41;1238230;24;698;-91
2022/10/18 03:45:07;;;;;;;;;;;;;;;17.46;75.34;102284.44;1238087;24;674;-91
2022/10/18 03:45:57;;;;;;;;;;;;;;;17.47;75.38;102296.97;1237649;24;693;-91
2022/10/18 03:46:48;;;;;;;;;;;;;;;17.46;75.95;102288.97;1243611;23;626;-91
2022/10/18 03:47:38;;;;;;;;;;;;;;;17.46;75.01;102294.38;1242808;23;806;-91
2022/10/18 03:48:29;;;;;;;;;;;;;;;17.47;75.18;102298.78;1238135;24;741;-91
2022/10/18 03:49:19;;;;;;;;;;;;;;;17.46;75.02;102288.97;1238428;24;678;-92
2022/10/18 03:50:10;;;;;;;;;;;;;;;17.45;75.37;102293.50;1238346;24;614;-93
2022/10/18 03:51:00;;;;;;;;;;;;;;;17.45;76.03;102295.34;1244376;23;662;-92
2022/10/18 03:51:50;;;;;;;;;;;;;;;17.44;75.36;102297.16;1238830;23;689;-92
2022/10/18 03:52:41;;;;;;;;;;;;;;;17.45;75.34;102287.25;1238104;24;711;-93
2022/10/18 03:53:31;;;;;;;;;;;;;;;17.43;74.95;102290.06;1237165;24;619;-86
2022/10/18 03:54:22;;;;;;;;;;;;;;;17.43;75.11;102290.06;1237744;24;639;-86
2022/10/18 03:55:12;;;;;;;;;;;;;;;17.43;75.95;102287.34;1237688;23;646;-87
2022/10/18 03:56:03;;;;;;;;;;;;;;;17.41;75.25;102292.00;1237731;24;639;-85
2022/10/18 03:56:53;;;;;;;;;;;;;;;17.43;75.47;102289.19;1243244;23;646;-87
2022/10/18 03:57:44;;;;;;;;;;;;;;;17.43;75.83;102289.19;1242473;23;659;-87
2022/10/18 03:58:34;;;;;;;;;;;;;;;17.43;75.13;102281.97;1238405;23;651;-85
2022/10/18 03:59:24;;;;;;;;;;;;;;;17.43;75.40;102290.06;1236740;24;674;-86
2022/10/18 04:00:15;;;;;;;;;;;;;;;17.44;74.75;102285.53;1236463;24;607;-86
2022/10/18 04:01:06;;;;;;;;;;;;;;;17.43;75.62;102284.66;1237821;24;674;-86
2022/10/18 04:01:56;;;;;;;;;;;;;;;17.43;75.70;102286.50;1236879;24;662;-85
2022/10/18 04:02:46;;;;;;;;;;;;;;;17.42;75.84;102280.25;1237893;24;677;-84
2022/10/18 04:03:37;;;;;;;;;;;;;;;17.43;74.90;102281.97;1237864;24;765;-85
2022/10/18 04:04:27;;;;;;;;;;;;;;;17.42;74.60;102285.63;1237700;24;673;-87
2022/10/18 04:05:18;;;;;;;;;;;;;;;17.41;75.14;102273.13;1238350;24;638;-87
2022/10/18 04:06:08;;;;;;;;;;;;;;;17.41;75.78;102275.81;1240595;24;630;-86
2022/10/18 04:06:59;;;;;;;;;;;;;;;17.40;75.79;102274.09;1238246;24;643;-87
2022/10/18 04:07:49;;;;;;;;;;;;;;;17.41;75.70;102275.81;1239399;24;658;-89
2022/10/18 04:08:40;;;;;;;;;;;;;;;17.41;74.86;102277.66;1237865;24;674;-88
2022/10/18 04:09:30;;;;;;;;;;;;;;;17.41;74.91;102275.81;1237128;24;638;-88
2022/10/18 04:10:21;;;;;;;;;;;;;;;17.40;75.31;102279.47;1237834;24;682;-86
2022/10/18 04:11:11;;;;;;;;;;;;;;;17.39;75.77;102280.47;1237689;24;694;-88
2022/10/18 04:12:02;;;;;;;;;;;;;;;17.40;75.70;102275.94;1237245;24;690;-87
2022/10/18 04:12:52;;;;;;;;;;;;;;;17.39;75.87;102276.91;1237915;23;650;-87
2022/10/18 04:13:43;;;;;;;;;;;;;;;17.39;75.01;102272.38;1237733;23;626;-88
2022/10/18 04:14:33;;;;;;;;;;;;;;;17.40;75.00;102282.19;1237153;24;631;-88
2022/10/18 04:15:23;;;;;;;;;;;;;;;17.41;75.14;102277.66;1237833;24;677;-87
2022/10/18 04:16:14;;;;;;;;;;;;;;;17.39;75.65;102272.38;1237872;23;646;-88
2022/10/18 04:17:04;;;;;;;;;;;;;;;17.40;75.59;102273.22;1237787;24;627;-86
2022/10/18 04:17:55;;;;;;;;;;;;;;;17.40;75.11;102278.63;1237748;24;665;-85
2022/10/18 04:18:46;;;;;;;;;;;;;;;17.40;75.00;102279.47;1237001;24;761;-86
2022/10/18 04:19:36;;;;;;;;;;;;;;;17.41;75.23;102288.44;1237778;23;642;-85
2022/10/18 04:20:27;;;;;;;;;;;;;;;17.40;74.98;102279.47;1237864;24;655;-85
2022/10/18 04:21:17;;;;;;;;;;;;;;;17.39;75.61;102283.16;1237863;24;655;-82
2022/10/18 04:22:08;;;;;;;;;;;;;;;17.40;75.01;102284.88;1237879;24;634;-83
2022/10/18 04:22:58;;;;;;;;;;;;;;;17.39;75.35;102277.75;1237718;24;646;-83
2022/10/18 04:23:49;;;;;;;;;;;;;;;17.40;74.78;102278.63;1237779;24;665;-83
2022/10/18 04:24:39;;;;;;;;;;;;;;;17.39;75.17;102276.91;1237710;23;1881;-83
2022/10/18 04:25:29;;;;;;;;;;;;;;;17.39;75.00;102277.75;1237572;24;653;-82
2022/10/18 04:26:20;;;;;;;;;;;;;;;17.40;75.30;102275.94;1237651;24;716;-85
2022/10/18 04:27:11;;;;;;;;;;;;;;;17.39;75.82;102277.75;1236948;24;619;-84
2022/10/18 04:28:03;;;;;;;;;;;;;;;17.39;75.54;102282.28;1237718;23;618;-84